WetterOnline ( https://www.wetteronline.de )

Wetter aktuell Ueckermünde

Aktuelles Wetter: Ueckermünde (7m)

6-stündlich | Neueste Meldungen
Ortszeit Temperatur Wetter
Do, 06.05. 14:00 11.7° C bewölkt
Do, 06.05. 8:00 6.0° C wolkig
Do, 06.05. 2:00 6.0° C bewölkt
Mi, 05.05. 20:00 8.3° C leichter Regen
Mi, 05.05. 14:00 11.0° C bewölkt
Mi, 05.05. 8:00 8.5° C bedeckt
Mi, 05.05. 2:00 7.9° C wolkenlos
Di, 04.05. 20:00 10.7° C bedeckt
Ortszeit Temperatur Wetter
Do, 06.05. 14:40 11.5° C bewölkt
Do, 06.05. 14:30 12.0° C wolkig
Do, 06.05. 14:20 12.0° C wolkig
Do, 06.05. 14:10 10.9° C wolkig
Do, 06.05. 14:00 11.7° C bewölkt
Do, 06.05. 13:50 11.7° C bewölkt
Do, 06.05. 13:30 10.1° C bewölkt
Do, 06.05. 13:00 10.2° C bewölkt
Ortszeit Relative Feuchte Sichtweite
Do, 06.05. 14:00 46% 65 km
Do, 06.05. 8:00 71% 45 km
Do, 06.05. 2:00 73% 50 km
Mi, 05.05. 20:00 76% 65 km
Mi, 05.05. 14:00 51% 35 km
Mi, 05.05. 8:00 68% >70 km
Mi, 05.05. 2:00 72% >70 km
Di, 04.05. 20:00 68% 60 km
Ortszeit Relative Feuchte Sichtweite
Do, 06.05. 14:40 39% -
Do, 06.05. 14:30 45% 65 km
Do, 06.05. 14:20 45% -
Do, 06.05. 14:10 46% -
Do, 06.05. 14:00 46% 65 km
Do, 06.05. 13:50 46% -
Do, 06.05. 13:30 45% >70 km
Do, 06.05. 13:00 48% >70 km
Ortszeit Niederschlagsmenge Niederschlagsart
Do, 06.05. 14:00 0.0 l/m2 in 6 Std. -
Do, 06.05. 8:00 0.6 l/m2 in 12 Std. -
Do, 06.05. 2:00 0.6 l/m2 in 6 Std. Regen
Mi, 05.05. 20:00 0.1 l/m2 in 12 Std. Regen
Mi, 05.05. 14:00 0.0 l/m2 in 6 Std. -
Mi, 05.05. 8:00 0.1 l/m2 in 12 Std. -
Mi, 05.05. 2:00 0.1 l/m2 in 6 Std. Regen
Di, 04.05. 20:00 0.4 l/m2 in 12 Std. Regen
Ortszeit Niederschlagsmenge Niederschlagsart
Do, 06.05. 14:40 keine Meldung -
Do, 06.05. 14:30 0.0 l/m2 in 1 Std. -
Do, 06.05. 14:20 keine Meldung -
Do, 06.05. 14:10 keine Meldung -
Do, 06.05. 14:00 0.0 l/m2 in 1 Std. -
Do, 06.05. 13:50 keine Meldung -
Do, 06.05. 13:30 0.0 l/m2 in 1 Std. -
Do, 06.05. 13:00 0.0 l/m2 in 1 Std. -
Ortszeit Stärke Spitze Richtung
km/h Bft. km/h Grad Sektor
Do, 06.05. 14:00 29 5 54 240° SW
Do, 06.05. 8:00 30 5 57 240° SW
Do, 06.05. 2:00 32 5 65 250° W
Mi, 05.05. 20:00 31 5 65 230° SW
Mi, 05.05. 14:00 36 5 72 230° SW
Mi, 05.05. 8:00 31 5 48 220° SW
Mi, 05.05. 2:00 22 4 50 210° SW
Di, 04.05. 20:00 30 5 57 220° SW
Ortszeit Stärke Spitze Richtung
km/h Bft. km/h Grad Sektor
Do, 06.05. 14:40 31 5 - 240° SW
Do, 06.05. 14:30 31 5 50 250° W
Do, 06.05. 14:20 31 5 - 250° W
Do, 06.05. 14:10 30 5 - 250° W
Do, 06.05. 14:00 29 5 50 240° SW
Do, 06.05. 13:50 29 5 - 240° SW
Do, 06.05. 13:30 28 4 48 250° W
Do, 06.05. 13:00 28 4 52 250° W
Ortszeit Untergrenze Bedeckung Gattung
total tief tief mittel hoch
Do, 06.05. 14:00 1500 m 7/8 6/8 - - -
Do, 06.05. 8:00 720 m 5/8 5/8 - - -
Do, 06.05. 2:00 870 m 8/8 7/8 - - -
Mi, 05.05. 20:00 720 m 7/8 7/8 - - -
Mi, 05.05. 14:00 1500 m 7/8 7/8 - - -
Mi, 05.05. 8:00 1500 m 8/8 8/8 - - -
Mi, 05.05. 2:00 - 0/8 0/8 - - -
Di, 04.05. 20:00 990 m 8/8 8/8 - - -
Ortszeit Bedeckungsgrad in Achtel und Wolkenuntergrenze
Do, 06.05. 14:40 3(1800m) 6(2100m) 8(3900m)
Do, 06.05. 14:30 2(1500m) 3(2100m) 8(3900m)
Do, 06.05. 14:20 2(1500m) 3(2100m) 8(3900m)
Do, 06.05. 14:10 3(1500m) 3(2100m) 8(3900m)
Do, 06.05. 14:00 4(1500m) 6(1800m) 7(4200m)
Do, 06.05. 13:50 4(1500m) 6(1800m) 7(4200m)
Do, 06.05. 13:30 7(1500m) 7(2100m) 8(3600m)
Do, 06.05. 13:00 3(1440m) 6(1800m) 7(3900m)
Ortszeit Luftdruck NN (hPa) Tendenz (hPa in 3 Std.)
Do, 06.05. 14:00 1004 + 0,6
Do, 06.05. 8:00 1003 + 1,1
Do, 06.05. 2:00 1001 + 1,8
Mi, 05.05. 20:00 997 + 0,4
Mi, 05.05. 14:00 995 + 0,5
Mi, 05.05. 8:00 994 + 0,1
Mi, 05.05. 2:00 995 - 0,6
Di, 04.05. 20:00 995 0,0
Ortszeit Luftdruck NN (hPa) Tendenz (hPa in 3 Std.)
Do, 06.05. 14:40 1004 keine Meldung
Do, 06.05. 14:30 1004 + 0,2
Do, 06.05. 14:20 1004 keine Meldung
Do, 06.05. 14:10 1004 keine Meldung
Do, 06.05. 14:00 1004 + 0,6
Do, 06.05. 13:50 1004 keine Meldung
Do, 06.05. 13:30 1004 + 0,8
Do, 06.05. 13:00 1004 + 1,0
Ortszeit Schneehöhe (cm)
Do, 06.05. 14:00 0
Do, 06.05. 8:00 0
Do, 06.05. 2:00 0
Mi, 05.05. 20:00 0
Mi, 05.05. 14:00 0
Mi, 05.05. 8:00 0
Mi, 05.05. 2:00 0
Di, 04.05. 20:00 0
Ortszeit Schneehöhe (cm)
Do, 06.05. 14:40 0
Do, 06.05. 14:30 0
Do, 06.05. 14:20 0
Do, 06.05. 14:10 0
Do, 06.05. 14:00 0
Do, 06.05. 13:50 0
Do, 06.05. 13:30 0
Do, 06.05. 13:00 0
Link zu dieser Seite / Seite empfehlen

Das Wetter in ...